Impacts TAF Board INFO
FOR SITUATIONAL AWARENESS. NOT TO BE USED FOR FLIGHT PLANNING PURPOSES.
IDs:

KDFW - Dallas-Ft Worth Intl, TX, US

Issued at 1505 UTC 14 Dec 2017
Updated at 1712 UTC 14 Dec 2017
Potential Impact None Slight Moderate High
Time<<15/06Z 15/07Z 15/08Z 15/09Z 15/10Z 15/11Z 15/12Z 15/13Z 15/14Z 15/15Z 15/16Z 15/17Z 15/18Z>>
Type PRVL PRVL PRVL PRVL PRVL PRVL PRVL PRVL PRVL PRVL PRVL PRVL
VIS >6 >6 >6 >6 >6 >6 >6 >6 >6 >6 >6 >6
CIG -- -- -- -- -- -- -- -- -- -- -- --
Cover SCT SCT SCT SCT SCT SCT SCT SCT SCT SCT SCT SCT
FltCat VFR VFR VFR VFR VFR VFR VFR VFR VFR VFR VFR VFR
WX -- -- -- -- -- -- -- -- -- -- -- --
WDir 340 340 340 340 340 340 340 340 340 340 340 340
WSpd 8 8 8 8 8 8 8 8 8 8 8 8
WGst -- -- -- -- -- -- -- -- -- -- -- --

Raw TAF
KDFW 141505Z 1415/1518 36015KT P6SM FEW120
  FM150100 34008KT P6SM SCT300


METAR Board
Radar Display
Forecast Discussion

FOR SITUATIONAL AWARENESS. NOT TO BE USED FOR FLIGHT PLANNING PURPOSES.